Time;durP1;ratioP1;P1;durP2;ratioP2;P2;SDS_P1;SDS_P2;PMS_P1;PMS_P2;Temp;Humidity;BMP_temperature;BMP_pressure;BME280_temperature;BME280_humidity;BME280_pressure;Samples;Min_cycle;Max_cycle;Signal;HPM_P1;HPM_P2
2023/09/26 00:09:44;;;;;;;5.65;2.10;;;20.60;63.30;;;;;;6216052;23;20050;-73
2023/09/26 00:12:10;;;;;;;4.13;2.00;;;20.60;63.30;;;;;;6214217;23;20442;-73
2023/09/26 00:14:37;;;;;;;7.57;2.08;;;20.60;63.20;;;;;;6215493;23;20034;-73
2023/09/26 00:17:04;;;;;;;6.22;1.90;;;20.60;63.20;;;;;;6215696;23;20004;-73
2023/09/26 00:19:29;;;;;;;4.97;1.98;;;20.60;63.70;;;;;;6216004;23;20005;-73
2023/09/26 00:21:55;;;;;;;6.50;2.13;;;20.50;63.50;;;;;;6215623;23;20072;-72
2023/09/26 00:24:21;;;;;;;6.53;2.53;;;20.50;63.70;;;;;;6215613;23;20001;-73
2023/09/26 00:26:47;;;;;;;4.50;2.17;;;20.50;63.80;;;;;;6215767;23;20001;-72
2023/09/26 00:29:12;;;;;;;3.90;1.92;;;20.40;64.00;;;;;;6214067;23;20040;-71
2023/09/26 00:31:38;;;;;;;6.95;2.70;;;20.40;63.90;;;;;;6215520;23;20271;-73
2023/09/26 00:34:04;;;;;;;3.83;1.95;;;20.40;64.10;;;;;;6213919;23;20327;-74
2023/09/26 00:36:30;;;;;;;5.60;2.45;;;20.40;64.20;;;;;;6188862;23;20031;-73
2023/09/26 00:38:56;;;;;;;5.55;2.38;;;20.40;64.20;;;;;;6215579;23;20414;-73
2023/09/26 00:41:21;;;;;;;7.93;2.28;;;20.50;64.10;;;;;;6215540;23;20080;-73
2023/09/26 00:43:48;;;;;;;5.85;2.38;;;20.50;64.10;;;;;;6214998;23;20035;-72
2023/09/26 00:46:14;;;;;;;6.32;2.47;;;20.40;64.30;;;;;;6215587;23;20439;-73
2023/09/26 00:48:40;;;;;;;5.32;2.83;;;20.40;64.20;;;;;;6213798;23;20339;-72
2023/09/26 00:51:07;;;;;;;5.95;2.75;;;20.40;64.40;;;;;;6215417;23;20058;-73
2023/09/26 00:53:37;;;;;;;4.78;2.50;;;20.40;64.30;;;;;;6215153;23;19996;-73
2023/09/26 00:56:03;;;;;;;3.97;2.15;;;20.40;64.30;;;;;;6215354;23;20016;-74
2023/09/26 00:58:31;;;;;;;6.68;2.63;;;20.40;64.50;;;;;;6215408;23;20004;-72
2023/09/26 01:00:58;;;;;;;5.38;2.42;;;20.40;64.50;;;;;;6215470;23;20000;-73
2023/09/26 01:03:24;;;;;;;5.70;2.22;;;20.50;64.60;;;;;;6215428;23;20001;-73
2023/09/26 01:05:50;;;;;;;4.50;2.28;;;20.50;64.40;;;;;;6215679;23;20363;-74
2023/09/26 01:08:16;;;;;;;4.82;1.73;;;20.50;64.40;;;;;;6215043;23;20051;-73
2023/09/26 01:10:43;;;;;;;4.30;1.80;;;20.40;64.30;;;;;;6215406;23;19996;-73
2023/09/26 01:13:09;;;;;;;5.28;2.03;;;20.40;64.40;;;;;;6215532;23;20005;-74
2023/09/26 01:15:39;;;;;;;4.93;2.10;;;20.40;64.60;;;;;;6215349;23;20102;-72
2023/09/26 01:18:10;;;;;;;4.90;1.90;;;20.30;64.50;;;;;;6215105;23;20004;-72
2023/09/26 01:20:43;;;;;;;5.72;2.10;;;20.30;64.50;;;;;;6213490;23;20335;-73
2023/09/26 01:23:10;;;;;;;5.07;2.13;;;20.30;64.80;;;;;;6215265;23;20423;-73
2023/09/26 01:25:37;;;;;;;5.28;1.90;;;20.30;64.80;;;;;;6214920;23;20038;-73
2023/09/26 01:28:07;;;;;;;5.28;2.25;;;20.30;64.90;;;;;;6215041;23;20043;-73
2023/09/26 01:30:38;;;;;;;4.45;1.80;;;20.30;64.80;;;;;;6213246;23;20011;-73
2023/09/26 01:33:05;;;;;;;3.95;1.88;;;20.30;64.70;;;;;;6215175;23;20114;-73
2023/09/26 01:35:31;;;;;;;4.20;2.03;;;20.30;64.90;;;;;;6214840;23;20013;-72
2023/09/26 01:37:57;;;;;;;3.85;1.70;;;20.30;65.00;;;;;;6215107;23;20000;-73
2023/09/26 01:40:24;;;;;;;3.22;1.80;;;20.30;65.00;;;;;;6215077;23;20005;-74
2023/09/26 01:42:50;;;;;;;5.32;2.03;;;20.20;65.20;;;;;;6214934;23;20000;-73
2023/09/26 01:45:17;;;;;;;4.30;1.70;;;20.20;65.30;;;;;;6214981;23;19996;-74
2023/09/26 01:47:50;;;;;;;5.65;2.05;;;20.20;65.40;;;;;;6214857;23;20024;-73
2023/09/26 01:50:19;;;;;;;4.38;1.80;;;20.20;65.20;;;;;;6214925;23;20004;-73
2023/09/26 01:52:45;;;;;;;3.83;1.70;;;20.20;65.30;;;;;;6214935;23;20378;-73
2023/09/26 01:55:17;;;;;;;5.28;1.92;;;20.20;65.30;;;;;;6212784;23;20028;-73
2023/09/26 01:57:43;;;;;;;3.22;1.80;;;20.20;65.20;;;;;;6209950;23;20088;-74
2023/09/26 02:00:13;;;;;;;3.92;1.92;;;20.20;65.50;;;;;;6214226;23;20005;-73
2023/09/26 02:02:43;;;;;;;4.85;1.95;;;20.20;66.10;;;;;;6214917;23;19996;-73
2023/09/26 02:05:11;;;;;;;3.88;1.92;;;20.20;65.40;;;;;;6214532;23;20024;-73
2023/09/26 02:07:37;;;;;;;3.60;1.60;;;20.10;65.50;;;;;;6214819;23;20036;-73
2023/09/26 02:10:04;;;;;;;5.97;1.85;;;20.10;65.60;;;;;;6214670;23;20067;-74
2023/09/26 02:12:41;;;;;;;5.53;1.80;;;20.10;65.50;;;;;;6214759;23;20000;-73
2023/09/26 02:15:08;;;;;;;4.07;1.80;;;20.10;65.60;;;;;;6214778;23;20127;-73
2023/09/26 02:17:37;;;;;;;5.05;2.00;;;20.10;65.60;;;;;;6214703;23;20007;-72
2023/09/26 02:20:12;;;;;;;3.65;1.80;;;20.10;65.80;;;;;;6214431;23;20378;-73
2023/09/26 02:22:42;;;;;;;3.33;1.70;;;20.10;65.60;;;;;;6214571;23;20084;-73
2023/09/26 02:25:09;;;;;;;5.45;2.00;;;20.10;65.90;;;;;;6214608;23;20012;-72
2023/09/26 02:27:35;;;;;;;4.93;1.60;;;20.10;65.60;;;;;;6214512;23;20411;-73
2023/09/26 02:30:00;;;;;;;3.35;1.63;;;20.10;65.50;;;;;;6214133;23;20047;-73
2023/09/26 02:32:26;;;;;;;3.13;1.65;;;20.10;65.60;;;;;;6212757;23;20357;-72
2023/09/26 02:34:52;;;;;;;2.97;1.70;;;20.10;65.70;;;;;;6214646;23;20013;-73
2023/09/26 02:37:18;;;;;;;3.03;1.50;;;20.10;65.70;;;;;;6214391;23;20131;-72
2023/09/26 02:39:44;;;;;;;7.63;2.10;;;20.00;65.50;;;;;;6214435;23;20012;-72
2023/09/26 02:42:09;;;;;;;5.32;2.13;;;20.00;65.70;;;;;;6214221;23;20331;-73
2023/09/26 02:44:35;;;;;;;3.28;1.77;;;20.00;65.90;;;;;;6214482;23;20001;-73
2023/09/26 02:47:01;;;;;;;3.17;1.70;;;20.00;65.90;;;;;;6214511;23;20000;-72
2023/09/26 02:49:26;;;;;;;5.30;1.88;;;20.00;65.90;;;;;;6214385;23;20369;-73
2023/09/26 02:51:52;;;;;;;2.80;1.67;;;20.00;66.10;;;;;;6214454;23;20002;-73
2023/09/26 02:54:18;;;;;;;4.70;1.80;;;20.00;65.90;;;;;;6214066;23;20005;-73
2023/09/26 02:56:43;;;;;;;4.35;1.90;;;20.00;65.90;;;;;;6214336;23;20059;-74
2023/09/26 02:59:09;;;;;;;3.28;1.80;;;20.00;66.10;;;;;;6214142;23;20004;-73
2023/09/26 03:01:35;;;;;;;4.65;1.90;;;20.00;66.20;;;;;;6214136;23;20001;-72
2023/09/26 03:04:01;;;;;;;8.15;1.75;;;19.90;66.00;;;;;;6214417;23;20074;-73
2023/09/26 03:06:26;;;;;;;5.03;2.20;;;19.90;66.00;;;;;;6214070;23;20011;-74
2023/09/26 03:08:52;;;;;;;4.50;1.85;;;19.90;65.90;;;;;;6186931;23;20024;-73
2023/09/26 03:11:18;;;;;;;3.55;1.75;;;19.90;65.90;;;;;;6214209;23;20008;-73
2023/09/26 03:13:44;;;;;;;5.50;1.88;;;19.80;65.90;;;;;;6213987;23;20028;-72
2023/09/26 03:16:13;;;;;;;4.40;1.70;;;19.90;66.10;;;;;;6213869;23;20423;-72
2023/09/26 03:18:39;;;;;;;5.78;2.03;;;19.90;66.10;;;;;;6214098;23;20004;-73
2023/09/26 03:21:05;;;;;;;4.03;1.90;;;19.80;65.90;;;;;;6212454;23;20121;-73
2023/09/26 03:23:32;;;;;;;4.90;1.88;;;19.80;66.20;;;;;;6214053;23;19997;-73
2023/09/26 03:25:58;;;;;;;3.95;2.00;;;19.80;66.00;;;;;;6214452;23;19997;-73
2023/09/26 03:28:24;;;;;;;6.18;2.00;;;19.80;66.20;;;;;;6212997;23;20009;-72
2023/09/26 03:30:50;;;;;;;5.32;1.85;;;19.80;66.30;;;;;;6214936;23;20070;-73
2023/09/26 03:33:15;;;;;;;5.40;2.00;;;19.80;66.40;;;;;;6214201;23;20367;-73
2023/09/26 03:35:41;;;;;;;4.10;1.98;;;19.80;66.40;;;;;;6213913;23;20008;-73
2023/09/26 03:38:07;;;;;;;3.53;2.00;;;19.80;66.50;;;;;;6214307;23;20355;-73
2023/09/26 03:40:33;;;;;;;5.20;1.60;;;19.70;66.50;;;;;;6214158;23;20005;-74
2023/09/26 03:42:59;;;;;;;4.18;2.15;;;19.70;66.50;;;;;;6213975;23;20048;-73
2023/09/26 03:45:24;;;;;;;6.10;2.05;;;19.70;66.50;;;;;;6187312;23;20019;-73
2023/09/26 03:47:51;;;;;;;9.18;2.33;;;19.80;66.80;;;;;;6214259;23;20023;-73
2023/09/26 03:50:17;;;;;;;5.80;1.70;;;19.80;66.90;;;;;;6214119;23;20000;-73
2023/09/26 03:52:42;;;;;;;8.65;1.90;;;19.70;66.70;;;;;;6214264;23;20059;-73
2023/09/26 03:55:08;;;;;;;5.35;2.08;;;19.70;66.70;;;;;;6213876;23;20327;-73
2023/09/26 03:57:34;;;;;;;5.38;2.25;;;19.70;66.80;;;;;;6214103;23;20300;-72
2023/09/26 04:00:06;;;;;;;4.18;2.00;;;19.70;66.90;;;;;;6214148;23;20338;-72
2023/09/26 04:02:32;;;;;;;6.03;2.83;;;19.60;66.90;;;;;;6213939;23;20001;-72
2023/09/26 04:04:58;;;;;;;6.30;2.60;;;19.60;67.00;;;;;;6214128;23;20008;-74
2023/09/26 04:07:28;;;;;;;6.65;2.35;;;19.60;67.00;;;;;;6213681;23;20012;-73
2023/09/26 04:09:53;;;;;;;6.05;2.50;;;19.60;67.20;;;;;;6214330;23;20035;-73
2023/09/26 04:12:19;;;;;;;5.93;2.22;;;19.60;67.20;;;;;;6213914;23;20001;-73
2023/09/26 04:14:45;;;;;;;4.88;2.05;;;19.60;67.30;;;;;;6213856;23;20008;-74
2023/09/26 04:17:10;;;;;;;4.70;1.92;;;19.60;67.40;;;;;;6214818;23;20001;-75
2023/09/26 04:19:36;;;;;;;6.95;1.92;;;19.60;67.20;;;;;;6215449;23;20331;-78
2023/09/26 04:22:03;;;;;;;8.43;2.35;;;19.60;67.30;;;;;;6217198;23;20024;-82
2023/09/26 04:24:29;;;;;;;7.78;3.05;;;19.60;67.40;;;;;;6216528;23;20019;-74
2023/09/26 04:26:54;;;;;;;12.77;3.08;;;19.70;67.40;;;;;;6215909;23;20024;-78
2023/09/26 04:29:20;;;;;;;5.88;2.50;;;19.70;67.40;;;;;;6215872;23;20100;-78
2023/09/26 04:31:46;;;;;;;7.15;2.20;;;19.70;67.40;;;;;;6216080;23;20330;-79
2023/09/26 04:34:12;;;;;;;5.65;2.10;;;19.70;67.40;;;;;;6215787;23;20024;-78
2023/09/26 04:36:38;;;;;;;7.05;2.42;;;19.60;67.30;;;;;;6216236;23;20425;-77
2023/09/26 04:39:04;;;;;;;7.32;2.72;;;19.60;67.40;;;;;;6219714;23;20024;-80
2023/09/26 04:41:30;;;;;;;7.65;2.05;;;19.60;67.70;;;;;;6217515;23;20008;-80
2023/09/26 04:43:55;;;;;;;4.10;2.03;;;19.50;67.60;;;;;;6216290;23;20446;-81
2023/09/26 04:46:21;;;;;;;7.15;2.53;;;19.50;67.80;;;;;;6216363;23;20426;-80
2023/09/26 04:48:47;;;;;;;5.95;2.20;;;19.50;67.90;;;;;;6214854;23;20012;-80
2023/09/26 04:51:14;;;;;;;9.10;2.50;;;19.50;68.00;;;;;;6214170;23;20015;-79
2023/09/26 04:53:41;;;;;;;7.32;2.63;;;19.50;68.00;;;;;;6215651;23;20091;-80
2023/09/26 04:56:07;;;;;;;8.40;2.45;;;19.50;68.10;;;;;;6214174;23;20021;-80
2023/09/26 04:58:33;;;;;;;7.68;3.00;;;19.50;68.20;;;;;;6215838;23;20308;-79
2023/09/26 05:01:09;;;;;;;9.07;2.70;;;19.50;68.10;;;;;;6215783;23;20035;-80
2023/09/26 05:03:35;;;;;;;5.38;2.58;;;19.50;68.20;;;;;;6215858;23;19997;-80
2023/09/26 05:06:01;;;;;;;10.32;4.07;;;19.50;68.30;;;;;;6216436;23;20023;-81
2023/09/26 05:08:26;;;;;;;8.30;3.20;;;19.50;68.60;;;;;;6215562;23;20075;-81
2023/09/26 05:10:52;;;;;;;10.98;3.78;;;19.50;68.70;;;;;;6215944;23;19992;-78
2023/09/26 05:13:18;;;;;;;7.07;3.15;;;19.50;68.60;;;;;;6216220;23;20004;-79
2023/09/26 05:15:44;;;;;;;10.02;3.92;;;19.50;68.60;;;;;;6216131;23;20016;-81
2023/09/26 05:18:10;;;;;;;8.07;3.15;;;19.60;68.80;;;;;;6215623;23;19992;-78
2023/09/26 05:20:36;;;;;;;9.20;3.85;;;19.60;68.50;;;;;;6215585;23;20011;-79
2023/09/26 05:23:03;;;;;;;9.13;3.92;;;19.60;68.60;;;;;;6214072;23;20008;-81
2023/09/26 05:25:28;;;;;;;11.85;3.67;;;19.60;68.40;;;;;;6214836;23;20011;-79
2023/09/26 05:27:54;;;;;;;12.05;3.03;;;19.60;68.50;;;;;;6215712;23;20054;-83
2023/09/26 05:30:20;;;;;;;5.68;2.90;;;19.60;68.40;;;;;;6215915;23;20380;-83
2023/09/26 05:32:46;;;;;;;8.32;2.80;;;19.60;68.40;;;;;;6213907;23;20008;-82
2023/09/26 05:35:12;;;;;;;11.02;2.80;;;19.60;68.60;;;;;;6215514;23;20012;-83
2023/09/26 05:37:38;;;;;;;9.25;2.80;;;19.60;68.50;;;;;;6215785;23;19997;-82
2023/09/26 05:40:06;;;;;;;9.07;2.75;;;19.60;68.80;;;;;;6213842;23;20338;-82
2023/09/26 05:42:34;;;;;;;6.45;2.63;;;19.60;68.80;;;;;;6215669;23;20007;-82
2023/09/26 05:44:59;;;;;;;8.73;2.33;;;19.60;68.50;;;;;;6218821;23;20061;-83
2023/09/26 05:47:25;;;;;;;7.05;2.70;;;19.60;68.60;;;;;;6219619;23;20004;-82
2023/09/26 05:49:51;;;;;;;5.20;2.58;;;19.70;68.80;;;;;;6219061;23;20052;-82
2023/09/26 05:52:20;;;;;;;7.32;2.85;;;19.70;68.80;;;;;;6225635;23;20423;-82
2023/09/26 05:54:47;;;;;;;9.57;3.53;;;19.80;68.80;;;;;;6231534;23;20020;-84
2023/09/26 05:57:13;;;;;;;11.35;3.30;;;19.80;68.80;;;;;;6226663;23;20085;-76
2023/09/26 05:59:39;;;;;;;8.32;3.25;;;19.90;68.60;;;;;;6214735;23;20009;-77
2023/09/26 06:02:07;;;;;;;8.35;3.63;;;20.00;68.40;;;;;;6215503;23;20008;-77
2023/09/26 06:04:33;;;;;;;8.02;3.42;;;20.20;68.10;;;;;;6214884;23;20092;-80
2023/09/26 06:06:59;;;;;;;12.30;4.38;;;20.30;68.10;;;;;;6188495;23;20004;-80
2023/09/26 06:09:24;;;;;;;9.18;4.00;;;20.40;67.80;;;;;;6215141;23;20075;-79
2023/09/26 06:11:50;;;;;;;13.10;4.00;;;20.50;67.60;;;;;;6215275;23;20001;-80
2023/09/26 06:14:16;;;;;;;14.00;3.60;;;20.60;67.50;;;;;;6216808;23;20001;-81
2023/09/26 06:16:41;;;;;;;10.98;3.97;;;20.80;67.40;;;;;;6215392;23;20083;-77
2023/09/26 06:19:07;;;;;;;12.00;4.38;;;20.90;67.00;;;;;;6214356;23;20418;-77
2023/09/26 06:21:33;;;;;;;8.93;3.85;;;21.00;66.80;;;;;;6214435;23;20373;-74
2023/09/26 06:23:59;;;;;;;9.90;3.63;;;21.10;66.70;;;;;;6214553;23;20076;-77
2023/09/26 06:26:25;;;;;;;11.77;3.70;;;21.20;66.30;;;;;;6214300;23;20000;-84
2023/09/26 06:28:50;;;;;;;8.48;3.03;;;21.30;66.20;;;;;;6214187;23;20000;-80
2023/09/26 06:31:16;;;;;;;9.75;2.85;;;21.30;66.00;;;;;;6214143;23;20008;-80
2023/09/26 06:33:42;;;;;;;6.95;3.00;;;21.50;66.20;;;;;;6212795;23;20393;-79
2023/09/26 06:36:17;;;;;;;6.15;2.75;;;21.60;66.20;;;;;;6214307;23;20320;-81
2023/09/26 06:38:43;;;;;;;7.78;2.63;;;21.70;65.50;;;;;;6214244;23;20007;-80
2023/09/26 06:41:09;;;;;;;7.63;2.72;;;21.90;65.50;;;;;;6214379;23;20009;-81
2023/09/26 06:43:36;;;;;;;7.53;2.42;;;22.00;65.10;;;;;;6214451;23;20016;-81
2023/09/26 06:46:06;;;;;;;5.45;2.33;;;22.00;65.60;;;;;;6214445;23;20318;-80
2023/09/26 06:48:34;;;;;;;6.85;2.80;;;22.00;64.90;;;;;;6214151;23;20001;-80
2023/09/26 06:51:01;;;;;;;5.82;2.42;;;22.10;64.80;;;;;;6212619;23;20070;-80
2023/09/26 06:53:27;;;;;;;7.78;2.17;;;22.20;64.50;;;;;;6214675;23;20003;-80
2023/09/26 06:56:00;;;;;;;13.13;2.60;;;22.20;64.50;;;;;;6214209;23;20084;-79
2023/09/26 06:58:25;;;;;;;7.28;2.63;;;22.30;64.30;;;;;;6212609;23;20015;-79
2023/09/26 07:00:52;;;;;;;5.53;2.42;;;22.40;64.30;;;;;;6214175;23;20079;-82
2023/09/26 07:03:18;;;;;;;5.80;2.40;;;22.60;64.20;;;;;;6214235;23;19996;-81
2023/09/26 07:05:44;;;;;;;5.88;2.13;;;22.70;64.30;;;;;;6214043;23;20051;-81
2023/09/26 07:08:12;;;;;;;6.72;2.63;;;22.70;63.40;;;;;;6212535;23;20021;-79
2023/09/26 07:10:38;;;;;;;4.20;1.90;;;22.80;63.40;;;;;;6214933;23;20120;-81
2023/09/26 07:13:04;;;;;;;7.00;2.20;;;22.80;63.30;;;;;;6214685;23;20001;-79
2023/09/26 07:15:31;;;;;;;5.57;1.98;;;22.80;63.60;;;;;;6187612;23;20477;-85
2023/09/26 07:18:05;;;;;;;7.47;2.20;;;22.80;63.70;;;;;;6215047;23;20000;-80
2023/09/26 07:20:30;;;;;;;5.05;2.15;;;22.90;63.70;;;;;;6214522;23;20083;-81
2023/09/26 07:22:56;;;;;;;6.00;2.10;;;23.10;63.50;;;;;;6214382;23;20031;-80
2023/09/26 07:25:22;;;;;;;5.43;2.13;;;23.10;63.20;;;;;;6214440;23;20001;-80
2023/09/26 07:27:47;;;;;;;8.52;2.40;;;23.10;63.00;;;;;;6214201;23;20061;-80
2023/09/26 07:30:13;;;;;;;4.97;2.20;;;23.10;62.90;;;;;;6214625;23;20011;-81
2023/09/26 07:32:39;;;;;;;6.25;2.20;;;23.20;62.90;;;;;;6215080;23;20000;-81
2023/09/26 07:35:05;;;;;;;4.38;2.30;;;23.20;62.20;;;;;;6212984;23;20035;-79
2023/09/26 07:37:34;;;;;;;5.28;2.17;;;23.20;62.30;;;;;;6214702;23;20057;-80
2023/09/26 07:40:01;;;;;;;7.82;2.63;;;23.20;62.30;;;;;;6214519;23;20005;-80
2023/09/26 07:42:27;;;;;;;6.10;2.10;;;23.30;62.10;;;;;;6218983;23;20035;-80
2023/09/26 07:44:58;;;;;;;6.47;2.58;;;23.30;62.00;;;;;;6214757;23;20000;-80
2023/09/26 07:47:24;;;;;;;5.30;2.20;;;23.30;62.20;;;;;;6214172;23;20391;-82
2023/09/26 07:49:50;;;;;;;9.32;2.63;;;23.30;61.90;;;;;;6214537;23;20020;-81
2023/09/26 07:52:15;;;;;;;6.70;2.90;;;23.40;62.10;;;;;;6215041;23;20001;-83
2023/09/26 07:54:41;;;;;;;4.15;2.08;;;23.40;62.10;;;;;;6215951;23;20095;-82
2023/09/26 07:57:07;;;;;;;10.48;2.40;;;23.40;61.90;;;;;;6216354;23;20070;-82
2023/09/26 07:59:34;;;;;;;3.70;1.90;;;23.40;62.00;;;;;;6216539;23;20000;-83
2023/09/26 08:01:59;;;;;;;6.80;2.22;;;23.50;61.80;;;;;;6216714;23;20076;-84
2023/09/26 08:04:25;;;;;;;7.47;2.67;;;23.50;61.70;;;;;;6217015;23;20067;-85
2023/09/26 08:06:51;;;;;;;5.28;2.03;;;23.50;61.70;;;;;;6217386;23;20434;-83
2023/09/26 08:09:17;;;;;;;5.47;2.30;;;23.50;61.80;;;;;;6216747;23;20378;-83
2023/09/26 08:11:43;;;;;;;7.38;2.15;;;23.50;61.10;;;;;;6219076;23;20027;-83
2023/09/26 08:14:09;;;;;;;4.90;2.30;;;23.60;61.50;;;;;;6222385;23;20024;-83
2023/09/26 08:16:35;;;;;;;11.20;2.20;;;23.60;61.30;;;;;;6220624;23;19996;-81
2023/09/26 08:19:00;;;;;;;6.18;2.22;;;23.60;61.20;;;;;;6221658;23;20028;-82
2023/09/26 08:21:26;;;;;;;5.47;2.10;;;23.60;60.70;;;;;;6223368;23;20040;-82
2023/09/26 08:23:53;;;;;;;4.07;1.83;;;23.60;61.20;;;;;;6225390;23;20003;-82
2023/09/26 08:26:19;;;;;;;5.10;2.47;;;23.70;60.70;;;;;;6216503;23;20311;-87
2023/09/26 08:28:45;;;;;;;6.63;2.28;;;23.80;60.60;;;;;;6216803;23;20049;-85
2023/09/26 08:31:15;;;;;;;6.75;2.22;;;23.80;60.70;;;;;;6217565;23;20150;-88
2023/09/26 08:33:44;;;;;;;5.30;1.98;;;23.90;60.60;;;;;;6214602;23;20005;-82
2023/09/26 08:36:18;;;;;;;5.28;2.38;;;24.00;60.50;;;;;;6220779;23;20013;-83
2023/09/26 08:38:45;;;;;;;6.57;2.45;;;24.00;60.50;;;;;;6217479;23;20024;-83
2023/09/26 08:41:11;;;;;;;8.23;2.22;;;24.10;60.40;;;;;;6218617;23;20319;-84
2023/09/26 08:43:38;;;;;;;6.38;2.40;;;24.10;60.30;;;;;;6221749;23;20055;-81
2023/09/26 08:46:05;;;;;;;5.07;2.08;;;24.10;60.00;;;;;;6214885;23;20288;-85
2023/09/26 08:48:32;;;;;;;5.05;2.08;;;24.20;60.10;;;;;;6214188;23;20032;-83
2023/09/26 08:50:58;;;;;;;7.75;2.30;;;24.30;60.00;;;;;;6215516;23;20000;-77
2023/09/26 08:53:24;;;;;;;7.03;1.90;;;24.30;59.80;;;;;;6215563;23;20051;-90
2023/09/26 08:55:50;;;;;;;10.57;5.30;;;24.40;59.50;;;;;;6215415;23;20013;-75
2023/09/26 08:58:17;;;;;;;7.93;2.40;;;24.40;59.50;;;;;;6214938;23;20000;-78
2023/09/26 09:00:43;;;;;;;7.50;2.22;;;24.50;59.50;;;;;;6215030;23;20004;-76
2023/09/26 09:03:09;;;;;;;7.38;2.25;;;24.50;59.30;;;;;;6188486;23;20039;-77
2023/09/26 09:05:35;;;;;;;6.63;1.90;;;24.60;59.20;;;;;;6213150;23;20009;-76
2023/09/26 09:08:00;;;;;;;8.00;1.92;;;24.60;58.90;;;;;;6213138;23;20017;-77
2023/09/26 09:10:26;;;;;;;9.13;2.30;;;24.70;58.80;;;;;;6215610;23;20005;-80
2023/09/26 09:13:03;;;;;;;4.53;2.40;;;24.80;59.10;;;;;;6215906;23;20023;-79
2023/09/26 09:15:29;;;;;;;5.70;2.15;;;24.80;58.90;;;;;;6215414;23;20382;-88
2023/09/26 09:17:55;;;;;;;6.30;2.40;;;24.90;58.70;;;;;;6216094;23;20021;-83
2023/09/26 09:20:30;;;;;;;8.13;2.28;;;25.00;58.50;;;;;;6215791;23;20035;-83
2023/09/26 09:23:04;;;;;;;9.68;2.95;;;25.10;58.30;;;;;;6215368;23;20327;-88
2023/09/26 09:25:31;;;;;;;;;;;25.10;58.00;;;;;;6216091;23;20005;-85
2023/09/26 09:27:59;;;;;;;5.72;2.33;;;25.20;58.50;;;;;;6215891;23;19900;-83
2023/09/26 09:30:25;;;;;;;5.28;2.20;;;25.20;58.30;;;;;;6215795;23;20001;-86
2023/09/26 09:32:51;;;;;;;8.70;2.47;;;25.30;57.90;;;;;;6215409;23;20088;-83
2023/09/26 09:35:18;;;;;;;7.40;2.55;;;25.40;57.40;;;;;;6215197;23;20422;-83
2023/09/26 09:37:49;;;;;;;8.25;2.63;;;25.50;57.30;;;;;;6218597;23;20106;-83
2023/09/26 09:40:23;;;;;;;8.15;2.92;;;25.60;57.20;;;;;;6217374;23;20004;-85
2023/09/26 09:42:49;;;;;;;;;;;25.60;57.00;;;;;;6216021;23;19996;-86
2023/09/26 09:45:15;;;;;;;6.75;2.90;;;25.70;57.50;;;;;;6216921;23;19899;-75
2023/09/26 09:47:44;;;;;;;9.73;3.08;;;25.80;56.90;;;;;;6217949;23;20076;-82
2023/09/26 09:50:12;;;;;;;8.18;2.50;;;25.90;56.50;;;;;;6214046;23;20012;-82
2023/09/26 09:52:44;;;;;;;8.07;2.70;;;25.90;56.10;;;;;;6213631;23;20359;-83
2023/09/26 09:55:19;;;;;;;8.02;2.40;;;26.00;55.70;;;;;;6214852;23;20089;-83
2023/09/26 09:57:49;;;;;;;7.60;2.67;;;26.10;55.90;;;;;;6214901;23;20008;-82
2023/09/26 10:00:19;;;;;;;5.53;2.30;;;26.20;55.50;;;;;;6221876;23;20020;-83
2023/09/26 10:02:46;;;;;;;8.15;2.50;;;26.30;55.30;;;;;;6218164;23;20000;-82
2023/09/26 10:05:14;;;;;;;6.38;2.53;;;26.30;55.10;;;;;;6213589;23;20296;-83
2023/09/26 10:07:43;;;;;;;6.55;2.60;;;26.50;54.90;;;;;;6214447;23;20013;-84
2023/09/26 10:10:11;;;;;;;7.65;2.70;;;26.50;54.80;;;;;;6214222;23;20025;-79
2023/09/26 10:12:41;;;;;;;8.40;2.70;;;26.60;54.20;;;;;;6213917;23;20035;-80
2023/09/26 10:15:13;;;;;;;6.28;2.78;;;26.70;54.30;;;;;;6212234;23;20095;-80
2023/09/26 10:17:40;;;;;;;10.23;2.70;;;26.80;54.10;;;;;;6214516;23;20075;-80
2023/09/26 10:20:16;;;;;;;10.68;2.70;;;26.90;53.50;;;;;;6214625;23;20453;-80
2023/09/26 10:22:44;;;;;;;5.30;2.63;;;26.90;53.60;;;;;;6214233;23;19996;-80
2023/09/26 10:25:23;;;;;;;5.13;2.65;;;27.00;52.90;;;;;;6214548;23;20007;-82
2023/09/26 10:27:50;;;;;;;5.70;2.70;;;27.10;53.00;;;;;;6215344;23;19996;-81
2023/09/26 10:30:18;;;;;;;7.07;2.40;;;27.10;53.00;;;;;;6214677;23;20059;-82
2023/09/26 10:32:45;;;;;;;6.20;2.53;;;27.20;52.90;;;;;;6214615;23;20031;-80
2023/09/26 10:35:13;;;;;;;5.70;2.78;;;27.30;52.70;;;;;;6214285;23;20016;-79
2023/09/26 10:37:49;;;;;;;7.07;2.60;;;27.40;52.40;;;;;;6214170;23;20032;-78
2023/09/26 10:40:16;;;;;;;7.28;3.20;;;27.50;52.30;;;;;;6215193;23;20420;-84
2023/09/26 10:42:44;;;;;;;6.75;3.22;;;27.50;52.20;;;;;;6229857;23;20027;-84
2023/09/26 10:45:10;;;;;;;6.28;2.70;;;27.50;51.70;;;;;;6227737;23;20001;-83
2023/09/26 10:47:38;;;;;;;17.20;3.45;;;27.60;51.60;;;;;;6224793;23;20000;-83
2023/09/26 10:50:14;;;;;;;7.15;2.85;;;27.60;51.80;;;;;;6212808;23;20485;-80
2023/09/26 10:52:49;;;;;;;9.00;2.85;;;27.70;51.90;;;;;;6212796;23;20032;-81
2023/09/26 10:55:17;;;;;;;7.93;2.80;;;27.80;51.40;;;;;;6215121;23;20406;-81
2023/09/26 10:57:46;;;;;;;9.23;2.70;;;27.80;51.60;;;;;;6214409;23;20024;-78
2023/09/26 11:00:13;;;;;;;8.55;2.92;;;27.90;51.50;;;;;;6212757;23;20399;-80
2023/09/26 11:02:41;;;;;;;8.27;2.60;;;27.90;51.30;;;;;;6214304;23;20080;-81
2023/09/26 11:05:12;;;;;;;7.78;2.90;;;28.00;51.20;;;;;;6214291;23;20023;-75
2023/09/26 11:07:38;;;;;;;9.45;3.17;;;28.10;50.90;;;;;;6214171;23;20086;-76
2023/09/26 11:10:05;;;;;;;7.20;2.88;;;28.10;50.70;;;;;;6215113;23;20005;-79
2023/09/26 11:12:32;;;;;;;9.05;3.10;;;28.20;50.40;;;;;;6212941;23;20001;-78
2023/09/26 11:15:03;;;;;;;8.13;2.63;;;28.20;50.50;;;;;;6188420;23;20052;-80
2023/09/26 11:17:29;;;;;;;6.38;3.10;;;28.30;50.50;;;;;;6215882;23;20112;-84
2023/09/26 11:20:05;;;;;;;7.60;2.63;;;28.30;50.50;;;;;;6214521;23;20016;-83
2023/09/26 11:22:42;;;;;;;7.03;3.03;;;28.40;50.70;;;;;;6215668;23;20075;-82
2023/09/26 11:25:08;;;;;;;8.10;2.60;;;28.40;50.40;;;;;;6214868;23;20017;-84
2023/09/26 11:27:42;;;;;;;5.28;2.67;;;28.50;49.90;;;;;;6215489;23;20004;-83
2023/09/26 11:30:17;;;;;;;;;;;28.60;49.40;;;;;;6215951;23;20066;-86
2023/09/26 11:32:50;;;;;;;7.50;2.70;;;28.70;49.80;;;;;;6216532;23;19907;-83
2023/09/26 11:35:16;;;;;;;9.02;2.63;;;28.70;50.00;;;;;;6215726;23;20032;-82
2023/09/26 11:37:42;;;;;;;6.78;2.72;;;28.70;50.00;;;;;;6214585;23;20004;-87
2023/09/26 11:40:11;;;;;;;7.70;2.75;;;28.80;49.80;;;;;;6215250;23;20035;-86
2023/09/26 11:42:47;;;;;;;7.97;3.03;;;28.80;49.50;;;;;;6216685;23;20369;-81
2023/09/26 11:45:26;;;;;;;10.27;2.63;;;28.90;49.20;;;;;;6215077;23;20385;-83
2023/09/26 11:47:59;;;;;;;8.48;3.10;;;28.90;49.40;;;;;;6216142;23;20000;-82
2023/09/26 11:50:28;;;;;;;8.27;2.97;;;28.90;49.40;;;;;;6213984;23;20005;-82
2023/09/26 11:53:01;;;;;;;9.27;3.30;;;28.90;49.30;;;;;;6215428;23;20243;-82
2023/09/26 11:55:27;;;;;;;7.00;3.17;;;29.00;49.10;;;;;;6215792;23;20024;-82
2023/09/26 11:57:53;;;;;;;6.88;2.90;;;29.10;49.00;;;;;;6216426;23;20034;-83
2023/09/26 12:00:20;;;;;;;7.50;3.08;;;29.00;49.20;;;;;;6216084;23;20024;-83
2023/09/26 12:02:49;;;;;;;9.38;2.83;;;29.10;48.60;;;;;;6215564;23;20450;-80
2023/09/26 12:05:25;;;;;;;9.43;2.95;;;29.10;48.90;;;;;;6214392;23;20375;-81
2023/09/26 12:07:52;;;;;;;9.00;3.03;;;29.20;47.30;;;;;;6217179;23;20461;-78
2023/09/26 12:10:18;;;;;;;7.60;2.83;;;29.30;48.30;;;;;;6216047;23;20028;-80
2023/09/26 12:12:45;;;;;;;6.50;2.97;;;29.30;49.10;;;;;;6215443;23;19997;-81
2023/09/26 12:15:19;;;;;;;8.48;3.63;;;29.40;48.40;;;;;;6213989;23;20025;-79
2023/09/26 12:17:49;;;;;;;5.82;2.70;;;29.50;47.70;;;;;;6215299;23;20003;-80
2023/09/26 12:20:22;;;;;;;6.53;3.00;;;29.60;46.80;;;;;;6215229;23;20008;-79
2023/09/26 12:22:52;;;;;;;9.00;2.70;;;29.50;47.10;;;;;;6215570;23;19997;-79
2023/09/26 12:25:19;;;;;;;8.38;3.00;;;29.60;47.80;;;;;;6215191;23;20004;-79
2023/09/26 12:27:49;;;;;;;7.63;3.05;;;29.60;47.70;;;;;;6215631;23;20071;-82
2023/09/26 12:30:14;;;;;;;8.48;3.40;;;29.60;46.30;;;;;;6215274;23;20000;-82
2023/09/26 12:32:41;;;;;;;6.20;3.05;;;29.70;47.40;;;;;;6213006;23;20347;-82
2023/09/26 12:35:07;;;;;;;9.40;3.13;;;29.70;47.70;;;;;;6213341;23;20017;-81
2023/09/26 12:37:32;;;;;;;8.02;3.28;;;29.70;47.20;;;;;;6214705;23;20373;-81
2023/09/26 12:39:58;;;;;;;7.25;3.13;;;29.80;47.00;;;;;;6214890;23;20005;-80
2023/09/26 12:42:25;;;;;;;9.63;3.17;;;29.80;47.00;;;;;;6213989;23;20005;-81
2023/09/26 12:44:51;;;;;;;6.55;3.08;;;29.90;46.70;;;;;;6216654;23;20427;-81
2023/09/26 12:47:17;;;;;;;7.07;3.35;;;30.00;46.90;;;;;;6215945;23;19997;-81
2023/09/26 12:49:46;;;;;;;8.93;3.17;;;30.00;46.70;;;;;;6216625;23;20000;-81
2023/09/26 12:52:16;;;;;;;8.88;3.25;;;30.10;46.40;;;;;;6216138;23;20012;-81
2023/09/26 12:54:41;;;;;;;9.23;3.13;;;30.00;45.40;;;;;;6218764;23;20017;-81
2023/09/26 12:57:07;;;;;;;6.18;2.70;;;30.10;46.50;;;;;;6196684;23;20035;-81